createdAt,value
2017-09-15T00:00:38.106Z,5.97
2017-09-15T00:02:42.039Z,6.00
2017-09-15T00:04:44.685Z,5.80
2017-09-15T00:06:48.269Z,6.63
2017-09-15T00:08:51.010Z,5.80
2017-09-15T00:10:53.654Z,5.93
2017-09-15T00:12:56.437Z,5.70
2017-09-15T00:14:59.114Z,6.10
2017-09-15T00:17:01.808Z,7.40
2017-09-15T00:19:04.816Z,6.10
2017-09-15T00:21:07.502Z,6.53
2017-09-15T00:23:10.154Z,5.73
2017-09-15T00:25:12.933Z,6.37
2017-09-15T00:27:15.643Z,6.17
2017-09-15T00:29:19.291Z,6.77
2017-09-15T00:31:21.964Z,7.23
2017-09-15T00:33:24.745Z,6.90
2017-09-15T00:35:27.399Z,7.50
2017-09-15T00:37:30.092Z,8.10
2017-09-15T00:39:32.888Z,7.70
2017-09-15T00:41:36.339Z,7.03
2017-09-15T00:43:39.869Z,7.30
2017-09-15T00:45:42.567Z,8.47
2017-09-15T00:47:45.227Z,8.27
2017-09-15T00:49:48.419Z,8.33
2017-09-15T00:51:51.103Z,9.97
2017-09-15T00:53:53.768Z,10.20
2017-09-15T00:55:56.452Z,8.40
2017-09-15T00:57:59.126Z,9.80
2017-09-15T01:00:01.948Z,11.33
2017-09-15T01:02:04.639Z,13.07
2017-09-15T01:04:08.049Z,11.20
2017-09-15T01:06:10.743Z,12.47
2017-09-15T01:08:14.227Z,14.33
2017-09-15T01:10:17.179Z,11.77
2017-09-15T01:12:20.622Z,11.80
2017-09-15T01:14:23.380Z,14.37
2017-09-15T01:16:26.030Z,13.00
2017-09-15T01:18:29.492Z,12.60
2017-09-15T01:20:32.430Z,13.03
2017-09-15T01:22:35.119Z,13.00
2017-09-15T01:24:37.793Z,12.77
2017-09-15T01:26:40.508Z,13.60
2017-09-15T01:28:43.161Z,14.40
2017-09-15T01:30:45.937Z,15.07
2017-09-15T01:32:48.630Z,16.33
2017-09-15T01:34:51.393Z,18.27
2017-09-15T01:36:54.057Z,17.97
2017-09-15T01:38:56.755Z,16.43
2017-09-15T01:40:59.516Z,16.30
2017-09-15T01:43:02.194Z,15.40
2017-09-15T01:45:04.863Z,15.50
2017-09-15T01:47:07.539Z,14.97
2017-09-15T01:49:10.182Z,15.07
2017-09-15T01:51:13.668Z,17.00
2017-09-15T01:53:17.076Z,16.00
2017-09-15T01:55:20.506Z,16.07
2017-09-15T01:57:23.215Z,16.10
2017-09-15T01:59:26.640Z,14.87
2017-09-15T02:01:30.115Z,17.17
2017-09-15T02:03:32.831Z,16.27
2017-09-15T02:05:35.507Z,17.90
2017-09-15T02:07:38.229Z,16.40
2017-09-15T02:09:40.873Z,16.50
2017-09-15T02:11:43.529Z,20.03
2017-09-15T02:13:46.669Z,17.07
2017-09-15T02:15:49.316Z,18.17
2017-09-15T02:17:51.957Z,17.80
2017-09-15T02:19:55.525Z,20.53
2017-09-15T02:21:58.217Z,19.07
2017-09-15T02:24:01.644Z,20.20
2017-09-15T02:26:04.550Z,18.63
2017-09-15T02:28:07.307Z,20.63
2017-09-15T02:30:11.229Z,19.00
2017-09-15T02:32:14.045Z,18.83
2017-09-15T02:34:16.708Z,20.00
2017-09-15T02:36:19.411Z,19.47
2017-09-15T02:38:22.855Z,20.70
2017-09-15T02:40:25.529Z,19.73
2017-09-15T02:42:28.249Z,21.40
2017-09-15T02:44:31.710Z,22.73
2017-09-15T02:46:34.471Z,20.30
2017-09-15T02:48:37.126Z,19.87
2017-09-15T02:50:39.816Z,19.93
2017-09-15T02:52:42.492Z,20.20
2017-09-15T02:54:45.475Z,20.27
2017-09-15T02:56:48.253Z,20.97
2017-09-15T02:58:51.008Z,23.20
2017-09-15T03:00:53.652Z,21.17
2017-09-15T03:02:56.379Z,22.73
2017-09-15T03:04:59.032Z,21.60
2017-09-15T03:07:02.455Z,21.03
2017-09-15T03:09:05.368Z,21.43
2017-09-15T03:11:08.032Z,21.13
2017-09-15T03:13:10.785Z,21.63
2017-09-15T03:15:13.584Z,22.90
2017-09-15T03:17:16.230Z,20.20
2017-09-15T03:19:18.908Z,24.73
2017-09-15T03:21:21.600Z,22.90
2017-09-15T03:23:24.264Z,21.07
2017-09-15T03:25:27.107Z,20.50
2017-09-15T03:27:29.768Z,20.87
2017-09-15T03:29:32.501Z,24.60
2017-09-15T03:31:35.175Z,24.23
2017-09-15T03:33:37.817Z,22.97
2017-09-15T03:35:41.351Z,26.00
2017-09-15T03:37:44.043Z,26.23
2017-09-15T03:39:46.723Z,22.97
2017-09-15T03:41:49.401Z,25.57
2017-09-15T03:43:52.087Z,23.87
2017-09-15T03:45:54.721Z,24.00
2017-09-15T03:47:58.223Z,25.67
2017-09-15T03:50:00.911Z,27.73
2017-09-15T03:52:03.631Z,24.70
2017-09-15T03:54:06.360Z,24.80
2017-09-15T03:56:09.252Z,23.90
2017-09-15T03:58:11.929Z,24.00
2017-09-15T04:00:14.572Z,25.80
2017-09-15T04:02:17.347Z,23.93
2017-09-15T04:04:20.862Z,24.60
2017-09-15T04:06:23.658Z,25.80
2017-09-15T04:08:26.458Z,22.33
2017-09-15T04:10:29.249Z,23.90
2017-09-15T04:12:32.679Z,23.60
2017-09-15T04:14:35.360Z,25.17
2017-09-15T04:16:38.103Z,22.60
2017-09-15T04:18:40.760Z,23.80
2017-09-15T04:20:43.448Z,21.33
2017-09-15T04:22:46.281Z,21.87
2017-09-15T04:24:49.061Z,24.50
2017-09-15T04:26:51.746Z,22.23
2017-09-15T04:28:54.510Z,19.93
2017-09-15T04:30:57.162Z,21.20
2017-09-15T04:33:00.618Z,20.03
2017-09-15T04:35:03.270Z,22.03
2017-09-15T04:37:05.933Z,21.77
2017-09-15T04:39:08.676Z,20.53
2017-09-15T04:41:12.357Z,20.50
2017-09-15T04:43:15.054Z,19.83
2017-09-15T04:45:18.585Z,19.23
2017-09-15T04:47:21.245Z,18.23
2017-09-15T04:49:24.729Z,19.40
2017-09-15T04:51:28.203Z,20.03
2017-09-15T04:53:31.063Z,18.90
2017-09-15T04:55:33.806Z,18.27
2017-09-15T04:57:36.515Z,16.80
2017-09-15T04:59:39.245Z,16.63
2017-09-15T05:01:42.055Z,17.23
2017-09-15T05:03:44.967Z,16.50
2017-09-15T05:05:47.903Z,15.30
2017-09-15T05:07:50.567Z,17.17
2017-09-15T05:09:53.558Z,14.80
2017-09-15T05:11:56.227Z,16.37
2017-09-15T05:13:59.019Z,14.90
2017-09-15T05:16:01.759Z,15.13
2017-09-15T05:18:04.401Z,15.23
2017-09-15T05:20:07.104Z,14.03
2017-09-15T05:22:10.016Z,13.83
2017-09-15T05:24:12.656Z,15.00
2017-09-15T05:26:15.831Z,13.80
2017-09-15T05:28:18.512Z,14.90
2017-09-15T05:30:21.435Z,12.30
2017-09-15T05:32:24.186Z,13.07
2017-09-15T05:34:26.857Z,11.27
2017-09-15T05:36:29.580Z,11.33
2017-09-15T05:38:32.256Z,11.67
2017-09-15T05:40:35.107Z,11.57
2017-09-15T05:42:38.525Z,11.37
2017-09-15T05:44:41.181Z,11.03
2017-09-15T05:46:44.644Z,11.30
2017-09-15T05:48:47.306Z,10.83
2017-09-15T05:50:49.975Z,10.47
2017-09-15T05:52:52.696Z,11.17
2017-09-15T05:54:56.130Z,11.13
2017-09-15T05:56:59.723Z,11.20
2017-09-15T05:59:02.407Z,10.03
2017-09-15T06:01:05.049Z,10.30
2017-09-15T06:03:08.475Z,9.07
2017-09-15T06:05:11.155Z,9.03
2017-09-15T06:07:13.953Z,8.47
2017-09-15T06:09:16.614Z,8.40
2017-09-15T06:11:19.330Z,7.50
2017-09-15T06:13:22.155Z,7.63
2017-09-15T06:15:25.486Z,7.90
2017-09-15T06:17:29.355Z,7.50
2017-09-15T06:19:32.232Z,7.93
2017-09-15T06:21:34.961Z,7.00
2017-09-15T06:23:37.891Z,6.70
2017-09-15T06:25:40.555Z,6.50
2017-09-15T06:27:43.349Z,6.80
2017-09-15T06:29:46.032Z,6.80
2017-09-15T06:31:48.687Z,6.40
2017-09-15T06:33:51.469Z,5.90
2017-09-15T06:35:54.160Z,5.87
2017-09-15T06:37:56.807Z,6.30
2017-09-15T06:40:00.248Z,6.13
2017-09-15T06:42:04.019Z,6.27
2017-09-15T06:44:06.733Z,6.50
2017-09-15T06:46:09.415Z,5.87
2017-09-15T06:48:12.303Z,6.03
2017-09-15T06:50:14.970Z,6.23
2017-09-15T06:52:18.048Z,6.20
2017-09-15T06:54:20.734Z,5.80
2017-09-15T06:56:23.422Z,5.80
2017-09-15T06:58:26.106Z,5.73
2017-09-15T07:00:28.787Z,5.20
2017-09-15T07:02:32.238Z,5.30
2017-09-15T07:04:35.036Z,5.53
2017-09-15T07:06:37.715Z,5.20
2017-09-15T07:08:40.356Z,5.70
2017-09-15T07:10:43.088Z,5.73
2017-09-15T07:12:45.826Z,5.30
2017-09-15T07:14:48.579Z,6.40
2017-09-15T07:16:51.319Z,5.73
2017-09-15T07:18:54.741Z,5.80
2017-09-15T07:20:57.403Z,5.73
2017-09-15T07:23:00.856Z,5.13
2017-09-15T07:25:03.608Z,5.60
2017-09-15T07:27:06.330Z,5.27
2017-09-15T07:29:09.000Z,5.93
2017-09-15T07:31:11.677Z,5.37
2017-09-15T07:33:14.314Z,5.90
2017-09-15T07:35:17.087Z,5.40
2017-09-15T07:37:19.804Z,5.20
2017-09-15T07:39:22.449Z,4.60
2017-09-15T07:41:25.156Z,5.73
2017-09-15T07:43:27.813Z,5.40
2017-09-15T07:45:30.457Z,5.43
2017-09-15T07:47:33.165Z,6.57
2017-09-15T07:49:35.820Z,6.03
2017-09-15T07:51:38.480Z,6.47
2017-09-15T07:53:41.196Z,5.80
2017-09-15T07:55:43.866Z,7.33
2017-09-15T07:57:46.685Z,6.80
2017-09-15T07:59:49.497Z,5.50
2017-09-15T08:01:52.179Z,6.00
2017-09-15T08:03:54.869Z,4.30
2017-09-15T08:05:57.551Z,4.20
2017-09-15T08:08:00.204Z,4.10
2017-09-15T08:10:02.961Z,3.93
2017-09-15T08:12:06.404Z,4.30
2017-09-15T08:14:09.067Z,3.83
2017-09-15T08:16:11.835Z,4.60
2017-09-15T08:18:14.505Z,5.40
2017-09-15T08:20:17.357Z,5.50
2017-09-15T08:22:20.780Z,7.53
2017-09-15T08:24:23.479Z,8.23
2017-09-15T08:26:26.208Z,8.37
2017-09-15T08:28:29.640Z,8.73
2017-09-15T08:30:32.408Z,7.63
2017-09-15T08:32:35.079Z,7.50
2017-09-15T08:34:37.730Z,7.50
2017-09-15T08:36:41.151Z,6.80
2017-09-15T08:38:43.802Z,6.27
2017-09-15T08:40:47.362Z,6.67
2017-09-15T08:42:50.104Z,6.50
2017-09-15T08:44:52.765Z,5.67
2017-09-15T08:46:55.473Z,6.17
2017-09-15T08:48:58.151Z,7.30
2017-09-15T08:51:00.861Z,7.80
2017-09-15T08:53:03.546Z,7.30
2017-09-15T08:55:06.180Z,6.60
2017-09-15T08:57:08.913Z,8.10
2017-09-15T08:59:12.376Z,7.70
2017-09-15T09:01:15.056Z,8.27
2017-09-15T09:03:17.761Z,7.23
2017-09-15T09:05:21.232Z,7.97
2017-09-15T09:07:23.887Z,6.97
2017-09-15T09:09:26.548Z,7.00
2017-09-15T09:11:29.254Z,7.07
2017-09-15T09:13:32.689Z,8.30
2017-09-15T09:15:35.359Z,7.17
2017-09-15T09:17:38.128Z,7.73
2017-09-15T09:19:41.529Z,6.13
2017-09-15T09:21:44.979Z,6.73
2017-09-15T09:23:47.760Z,5.80
2017-09-15T09:25:50.419Z,4.97
2017-09-15T09:27:53.379Z,4.80
2017-09-15T09:29:56.684Z,5.07
2017-09-15T09:31:59.393Z,4.90
2017-09-15T09:34:02.138Z,4.50
2017-09-15T09:36:04.810Z,4.40
2017-09-15T09:38:07.536Z,3.67
2017-09-15T09:40:10.257Z,4.03
2017-09-15T09:42:13.035Z,3.90
2017-09-15T09:44:15.927Z,4.33
2017-09-15T09:46:18.584Z,4.77
2017-09-15T09:48:21.297Z,2.87
2017-09-15T09:50:23.945Z,2.47
2017-09-15T09:52:26.599Z,2.53
2017-09-15T09:54:29.274Z,2.60
2017-09-15T09:56:32.703Z,2.40
2017-09-15T09:58:35.370Z,1.50
2017-09-15T10:00:38.063Z,1.60
2017-09-15T10:02:40.740Z,1.43
2017-09-15T10:04:43.519Z,1.20
2017-09-15T10:06:46.369Z,1.33
2017-09-15T10:08:49.021Z,1.20
2017-09-15T10:10:52.543Z,1.30
2017-09-15T10:12:55.208Z,1.30
2017-09-15T10:14:57.887Z,1.20
2017-09-15T10:17:00.741Z,1.20
2017-09-15T10:19:04.156Z,1.43
2017-09-15T10:21:07.034Z,1.47
2017-09-15T10:23:10.497Z,1.40
2017-09-15T10:25:13.323Z,1.50
2017-09-15T10:27:16.068Z,1.33
2017-09-15T10:29:19.601Z,1.40
2017-09-15T10:31:22.248Z,1.40
2017-09-15T10:33:25.678Z,1.47
2017-09-15T10:35:28.425Z,1.70
2017-09-15T10:37:31.109Z,1.60
2017-09-15T10:39:33.771Z,2.00
2017-09-15T10:41:37.206Z,1.50
2017-09-15T10:43:39.874Z,1.70
2017-09-15T10:45:42.879Z,1.37
2017-09-15T10:47:45.838Z,1.33
2017-09-15T10:49:48.485Z,1.30
2017-09-15T10:51:52.023Z,1.40
2017-09-15T10:53:54.668Z,1.57
2017-09-15T10:55:57.339Z,2.00
2017-09-15T10:58:06.449Z,1.83
2017-09-15T11:00:13.156Z,1.53
2017-09-15T11:02:15.790Z,1.70
2017-09-15T11:04:19.392Z,1.57
2017-09-15T11:06:22.032Z,1.80
2017-09-15T11:08:24.678Z,1.93
2017-09-15T11:10:27.663Z,1.70
2017-09-15T11:12:30.331Z,1.57
2017-09-15T11:14:32.982Z,1.63
2017-09-15T11:16:36.407Z,1.40
2017-09-15T11:18:39.065Z,1.80
2017-09-15T11:20:42.681Z,1.83
2017-09-15T11:22:45.345Z,1.60
2017-09-15T11:24:48.020Z,1.63
2017-09-15T11:26:50.698Z,1.77
2017-09-15T11:28:53.379Z,1.60
2017-09-15T11:30:56.171Z,1.80
2017-09-15T11:32:58.877Z,1.80
2017-09-15T11:35:01.885Z,1.87
2017-09-15T11:37:05.422Z,1.90
2017-09-15T11:39:08.070Z,1.90
2017-09-15T11:41:11.688Z,1.97
2017-09-15T11:43:14.357Z,2.13
2017-09-15T11:45:17.031Z,1.90
2017-09-15T11:47:19.730Z,1.80
2017-09-15T11:49:22.392Z,2.23
2017-09-15T11:51:25.594Z,2.73
2017-09-15T11:53:28.497Z,2.73
2017-09-15T11:55:31.163Z,2.20
2017-09-15T11:57:34.185Z,2.13
2017-09-15T11:59:36.861Z,2.67
2017-09-15T12:01:39.561Z,3.03
2017-09-15T12:03:43.109Z,3.10
2017-09-15T12:05:45.950Z,2.83
2017-09-15T12:07:48.750Z,3.20
2017-09-15T12:09:51.420Z,3.20
2017-09-15T12:11:54.398Z,3.27
2017-09-15T12:13:57.119Z,3.50
2017-09-15T12:15:59.782Z,3.53
2017-09-15T12:18:02.489Z,3.80
2017-09-15T12:20:05.934Z,4.03
2017-09-15T12:22:08.670Z,4.00
2017-09-15T12:24:12.331Z,4.03
2017-09-15T12:26:14.977Z,4.47
2017-09-15T12:28:17.747Z,4.87
2017-09-15T12:30:20.427Z,3.97
2017-09-15T12:32:23.125Z,3.90
2017-09-15T12:34:25.829Z,3.70
2017-09-15T12:36:29.306Z,3.73
2017-09-15T12:38:32.055Z,3.50
2017-09-15T12:40:34.719Z,3.60
2017-09-15T12:42:37.597Z,3.30
2017-09-15T12:44:40.332Z,3.10
2017-09-15T12:46:43.210Z,4.07
2017-09-15T12:48:46.867Z,3.53
2017-09-15T12:50:49.648Z,4.17
2017-09-15T12:52:52.334Z,3.63
2017-09-15T12:54:55.850Z,2.90
2017-09-15T12:56:58.536Z,3.30
2017-09-15T12:59:01.255Z,3.70
2017-09-15T13:01:03.936Z,3.70
2017-09-15T13:03:06.584Z,3.27
2017-09-15T13:05:09.337Z,3.60
2017-09-15T13:07:12.023Z,3.00
2017-09-15T13:09:14.858Z,3.40
2017-09-15T13:11:17.514Z,3.40
2017-09-15T13:13:21.042Z,3.37
2017-09-15T13:15:23.821Z,3.23
2017-09-15T13:17:26.515Z,3.40
2017-09-15T13:19:29.215Z,3.10
2017-09-15T13:21:31.865Z,2.80
2017-09-15T13:23:34.529Z,2.90
2017-09-15T13:25:38.121Z,2.73
2017-09-15T13:27:40.775Z,2.90
2017-09-15T13:29:46.804Z,2.57
2017-09-15T13:31:50.243Z,2.70
2017-09-15T13:33:52.907Z,2.60
2017-09-15T13:35:55.678Z,3.27
2017-09-15T13:37:58.384Z,3.03
2017-09-15T13:40:01.084Z,2.57
2017-09-15T13:42:03.752Z,2.10
2017-09-15T13:44:07.492Z,2.10
2017-09-15T13:46:11.004Z,1.87
2017-09-15T13:48:13.738Z,1.97
2017-09-15T13:50:16.881Z,1.97
2017-09-15T13:52:19.658Z,1.50
2017-09-15T13:54:22.368Z,1.63
2017-09-15T13:56:25.137Z,1.87
2017-09-15T13:58:27.777Z,2.03
2017-09-15T14:00:30.525Z,2.40
2017-09-15T14:02:33.200Z,2.10
2017-09-15T14:04:37.176Z,2.33
2017-09-15T14:06:40.033Z,2.00
2017-09-15T14:08:42.699Z,2.33
2017-09-15T14:10:45.353Z,2.30
2017-09-15T14:12:48.827Z,2.20
2017-09-15T14:14:52.285Z,2.63
2017-09-15T14:16:54.963Z,2.90
2017-09-15T14:18:57.939Z,2.67
2017-09-15T14:21:00.730Z,2.80
2017-09-15T14:23:03.414Z,2.33
2017-09-15T14:25:06.154Z,2.53
2017-09-15T14:27:08.805Z,2.60
2017-09-15T14:29:12.331Z,2.87
2017-09-15T14:31:15.019Z,3.20
2017-09-15T14:33:17.709Z,3.93
2017-09-15T14:35:20.521Z,3.47
2017-09-15T14:37:23.776Z,3.73
2017-09-15T14:39:26.556Z,3.00
2017-09-15T14:41:29.249Z,2.53
2017-09-15T14:43:31.931Z,2.50
2017-09-15T14:45:34.674Z,2.30
2017-09-15T14:47:37.354Z,2.20
2017-09-15T14:49:40.118Z,2.40
2017-09-15T14:51:42.807Z,2.20
2017-09-15T14:53:45.450Z,2.43
2017-09-15T14:55:48.145Z,2.80
2017-09-15T14:57:50.908Z,2.40
2017-09-15T14:59:53.602Z,2.97
2017-09-15T15:01:56.293Z,4.57
2017-09-15T15:03:58.955Z,4.43
2017-09-15T15:06:01.840Z,4.67
2017-09-15T15:08:04.543Z,4.40
2017-09-15T15:10:07.180Z,4.00
2017-09-15T15:12:09.895Z,4.17
2017-09-15T15:14:13.359Z,5.07
2017-09-15T15:16:16.029Z,5.03
2017-09-15T15:18:19.103Z,4.87
2017-09-15T15:20:21.779Z,5.83
2017-09-15T15:22:24.453Z,4.23
2017-09-15T15:24:27.145Z,2.70
2017-09-15T15:26:29.815Z,2.97
2017-09-15T15:28:32.825Z,2.37
2017-09-15T15:30:35.521Z,3.10
2017-09-15T15:32:38.183Z,2.77
2017-09-15T15:34:40.859Z,3.70
2017-09-15T15:36:43.525Z,3.40
2017-09-15T15:38:46.394Z,2.87
2017-09-15T15:40:49.100Z,3.17
2017-09-15T15:45:25.338Z,3.07
2017-09-15T15:47:28.753Z,3.27
2017-09-15T15:49:31.450Z,2.83
2017-09-15T15:51:34.112Z,2.80
2017-09-15T15:53:37.508Z,2.80
2017-09-15T15:55:40.211Z,3.10
2017-09-15T15:57:42.848Z,3.43
2017-09-15T15:59:45.606Z,3.10
2017-09-15T16:01:48.280Z,2.80
2017-09-15T16:03:50.904Z,2.90
2017-09-15T16:05:53.603Z,4.70
2017-09-15T16:07:56.285Z,5.83
2017-09-15T16:09:59.709Z,3.23
2017-09-15T16:12:02.457Z,3.90
2017-09-15T16:14:05.856Z,3.90
2017-09-15T16:16:09.279Z,2.87
2017-09-15T16:18:11.956Z,2.83
2017-09-15T16:20:14.614Z,2.73
2017-09-15T16:22:17.324Z,2.90
2017-09-15T16:24:20.018Z,2.90
2017-09-15T16:26:22.758Z,2.90
2017-09-15T16:28:25.399Z,2.60
2017-09-15T16:30:28.104Z,2.73
2017-09-15T16:32:30.817Z,2.87
2017-09-15T16:34:33.446Z,2.40
2017-09-15T16:36:36.118Z,2.73
2017-09-15T16:38:44.510Z,2.43
2017-09-15T16:40:53.671Z,2.63
2017-09-15T16:43:02.096Z,2.47
2017-09-15T16:45:10.429Z,2.93
2017-09-15T16:47:18.711Z,2.50
2017-09-15T16:49:27.190Z,3.37
2017-09-15T16:51:29.844Z,3.00
2017-09-15T16:53:33.280Z,3.07
2017-09-15T16:55:36.031Z,2.77
2017-09-15T16:57:38.735Z,2.80
2017-09-15T16:59:41.407Z,2.57
2017-09-15T17:01:44.085Z,2.70
2017-09-15T17:03:46.784Z,3.40
2017-09-15T17:05:49.430Z,3.50
2017-09-15T17:07:52.162Z,3.63
2017-09-15T17:09:55.589Z,4.77
2017-09-15T17:11:58.291Z,4.90
2017-09-15T17:14:00.986Z,4.23
2017-09-15T17:16:03.637Z,4.90
2017-09-15T17:18:06.332Z,4.67
2017-09-15T17:20:09.010Z,4.00
2017-09-15T17:22:11.715Z,3.93
2017-09-15T17:24:15.108Z,4.30
2017-09-15T17:26:18.526Z,3.77
2017-09-15T17:28:21.198Z,4.37
2017-09-15T17:30:23.844Z,4.13
2017-09-15T17:32:27.450Z,3.50
2017-09-15T17:34:30.843Z,4.40
2017-09-15T17:36:34.306Z,3.70
2017-09-15T17:38:37.779Z,3.80
2017-09-15T17:40:40.406Z,3.80
2017-09-15T17:42:43.886Z,4.00
2017-09-15T17:44:47.301Z,3.47
2017-09-15T17:46:50.062Z,3.97
2017-09-15T17:48:53.512Z,4.00
2017-09-15T17:50:56.141Z,4.20
2017-09-15T17:52:58.812Z,4.10
2017-09-15T17:55:02.736Z,3.70
2017-09-15T17:57:05.517Z,4.47
2017-09-15T17:59:08.212Z,4.20
2017-09-15T18:01:10.911Z,4.47
2017-09-15T18:03:13.559Z,4.60
2017-09-15T18:05:16.859Z,4.23
2017-09-15T18:07:19.581Z,4.63
2017-09-15T18:09:23.000Z,5.40
2017-09-15T18:11:25.747Z,5.77
2017-09-15T18:13:29.253Z,6.10
2017-09-15T18:15:31.905Z,6.00
2017-09-15T18:17:34.599Z,6.07
2017-09-15T18:19:38.037Z,6.07
2017-09-15T18:21:40.728Z,6.33
2017-09-15T18:23:43.465Z,5.87
2017-09-15T18:25:46.264Z,5.87
2017-09-15T18:27:48.964Z,6.40
2017-09-15T18:29:51.911Z,6.50
2017-09-15T18:31:54.603Z,7.00
2017-09-15T18:34:02.134Z,6.00
2017-09-15T18:36:05.622Z,6.70
2017-09-15T18:38:11.740Z,6.33
2017-09-15T18:40:14.647Z,6.60
2017-09-15T18:42:17.287Z,7.17
2017-09-15T18:44:20.243Z,6.50
2017-09-15T18:46:23.024Z,6.87
2017-09-15T18:48:25.914Z,6.37
2017-09-15T18:50:28.617Z,6.13
2017-09-15T18:52:31.291Z,6.40
2017-09-15T18:54:33.997Z,7.00
2017-09-15T18:56:37.449Z,6.63
2017-09-15T18:58:40.241Z,6.40
2017-09-15T19:00:43.006Z,6.23
2017-09-15T19:02:45.697Z,6.70
2017-09-15T19:04:48.443Z,6.43
2017-09-15T19:06:51.093Z,7.63
2017-09-15T19:08:54.605Z,9.97
2017-09-15T19:10:57.309Z,14.10
2017-09-15T19:12:59.955Z,22.80
2017-09-15T19:15:02.679Z,19.97
2017-09-15T19:17:06.126Z,17.73
2017-09-15T19:19:08.764Z,20.17
2017-09-15T19:21:12.276Z,12.90
2017-09-15T19:23:14.951Z,10.77
2017-09-15T19:25:17.707Z,10.37
2017-09-15T19:27:20.384Z,7.80
2017-09-15T19:29:23.822Z,7.43
2017-09-15T19:31:26.648Z,7.37
2017-09-15T19:33:30.133Z,7.50
2017-09-15T19:35:32.813Z,7.87
2017-09-15T19:37:35.497Z,10.13
2017-09-15T19:39:38.283Z,21.13
2017-09-15T19:41:41.854Z,22.83
2017-09-15T19:43:44.528Z,22.30
2017-09-15T19:45:47.598Z,20.93
2017-09-15T19:47:50.419Z,21.93
2017-09-15T19:49:53.870Z,18.53
2017-09-15T19:51:56.812Z,26.40
2017-09-15T19:53:59.470Z,48.60
2017-09-15T19:56:03.111Z,34.77
2017-09-15T19:58:06.000Z,66.80
2017-09-15T20:00:08.640Z,67.57
2017-09-15T20:02:11.866Z,48.17
2017-09-15T20:04:14.561Z,59.67
2017-09-15T20:06:17.239Z,66.47
2017-09-15T20:08:20.178Z,70.27
2017-09-15T20:10:23.938Z,66.77
2017-09-15T20:12:28.752Z,60.70
2017-09-15T20:14:31.392Z,49.33
2017-09-15T20:16:34.146Z,34.63
2017-09-15T20:18:37.023Z,28.30
2017-09-15T20:20:39.801Z,21.20
2017-09-15T20:22:42.470Z,14.83
2017-09-15T20:24:45.919Z,9.63
2017-09-15T20:26:48.583Z,8.53
2017-09-15T20:28:51.632Z,8.57
2017-09-15T20:30:54.338Z,7.43
2017-09-15T20:32:56.991Z,7.70
2017-09-15T20:34:59.775Z,7.70
2017-09-15T20:37:02.416Z,7.20
2017-09-15T20:39:05.876Z,7.70
2017-09-15T20:41:08.589Z,9.13
2017-09-15T20:43:12.069Z,8.57
2017-09-15T20:45:15.613Z,8.37
2017-09-15T20:47:18.286Z,8.20
2017-09-15T20:49:21.011Z,8.07
2017-09-15T20:51:23.682Z,8.87
2017-09-15T20:53:26.353Z,7.80
2017-09-15T20:55:29.030Z,8.23
2017-09-15T20:57:31.786Z,8.17
2017-09-15T20:59:34.493Z,8.40
2017-09-15T21:01:38.141Z,9.37
2017-09-15T21:03:40.976Z,8.43
2017-09-15T21:05:44.434Z,8.87
2017-09-15T21:07:47.126Z,7.33
2017-09-15T21:09:49.935Z,8.37
2017-09-15T21:11:52.567Z,7.80
2017-09-15T21:13:55.212Z,8.70
2017-09-15T21:15:57.942Z,9.53
2017-09-15T21:18:01.521Z,8.90
2017-09-15T21:20:04.261Z,8.30
2017-09-15T21:22:07.009Z,9.10
2017-09-15T21:24:09.736Z,7.60
2017-09-15T21:26:12.537Z,7.90
2017-09-15T21:28:15.375Z,8.37
2017-09-15T21:30:18.125Z,7.80
2017-09-15T21:32:21.664Z,8.63
2017-09-15T21:34:24.318Z,8.90
2017-09-15T21:36:27.154Z,8.57
2017-09-15T21:38:30.558Z,9.00
2017-09-15T21:40:34.531Z,8.33
2017-09-15T21:42:37.291Z,8.60
2017-09-15T21:44:39.923Z,8.70
2017-09-15T21:46:42.655Z,9.33
2017-09-15T21:48:45.335Z,8.37
2017-09-15T21:50:48.002Z,8.87
2017-09-15T21:52:50.742Z,10.43
2017-09-15T21:54:53.520Z,9.73
2017-09-15T21:56:56.181Z,10.60
2017-09-15T21:58:58.853Z,11.10
2017-09-15T22:01:01.518Z,10.63
2017-09-15T22:03:05.052Z,10.30
2017-09-15T22:05:07.856Z,9.93
2017-09-15T22:07:10.514Z,11.20
2017-09-15T22:09:13.177Z,11.57
2017-09-15T22:11:15.975Z,11.93
2017-09-15T22:13:18.747Z,12.27
2017-09-15T22:15:21.489Z,12.83
2017-09-15T22:17:24.174Z,12.37
2017-09-15T22:19:26.834Z,12.40
2017-09-15T22:21:29.488Z,12.10
2017-09-15T22:23:32.971Z,12.50
2017-09-15T22:25:35.636Z,13.40
2017-09-15T22:27:38.314Z,13.47
2017-09-15T22:29:41.008Z,13.00
2017-09-15T22:31:44.450Z,13.40
2017-09-15T22:33:47.133Z,13.57
2017-09-15T22:35:49.849Z,12.77
2017-09-15T22:37:52.497Z,12.83
2017-09-15T22:39:55.197Z,11.80
2017-09-15T22:41:58.647Z,13.30
2017-09-15T22:44:01.298Z,12.23
2017-09-15T22:46:03.986Z,12.20
2017-09-15T22:48:06.673Z,12.17
2017-09-15T22:50:09.356Z,12.50
2017-09-15T22:52:12.030Z,10.40
2017-09-15T22:54:26.599Z,11.10
2017-09-15T22:56:29.246Z,11.37
2017-09-15T22:58:31.966Z,10.47
2017-09-15T23:00:34.710Z,11.07
2017-09-15T23:02:37.385Z,10.60
2017-09-15T23:04:40.118Z,10.70
2017-09-15T23:06:43.557Z,11.10
2017-09-15T23:08:46.237Z,10.00
2017-09-15T23:10:48.997Z,10.27
2017-09-15T23:12:51.679Z,9.97
2017-09-15T23:14:54.321Z,9.30
2017-09-15T23:16:56.995Z,8.63
2017-09-15T23:18:59.638Z,10.00
2017-09-15T23:21:02.360Z,9.20
2017-09-15T23:23:05.026Z,8.87
2017-09-15T23:25:07.712Z,10.00
2017-09-15T23:27:10.601Z,9.03
2017-09-15T23:29:13.277Z,9.47
2017-09-15T23:31:15.986Z,10.10
2017-09-15T23:33:18.712Z,10.70
2017-09-15T23:35:21.365Z,10.33
2017-09-15T23:37:24.810Z,9.73
2017-09-15T23:39:27.479Z,10.10
2017-09-15T23:41:30.145Z,11.37
2017-09-15T23:43:32.875Z,10.77
2017-09-15T23:45:36.314Z,10.80
2017-09-15T23:47:39.083Z,11.70
2017-09-15T23:49:41.719Z,11.97
2017-09-15T23:51:44.438Z,11.10
2017-09-15T23:53:47.142Z,12.10
2017-09-15T23:55:49.884Z,12.30
2017-09-15T23:57:52.658Z,11.37
2017-09-15T23:59:55.437Z,11.07
